sensor_id;sensor_type;location;lat;lon;timestamp;temperature;humidity
15543;DHT22;7873;52.230;12.856;2023-04-01T00:02:20;25.10;41.30
15543;DHT22;7873;52.230;12.856;2023-04-01T00:04:47;25.10;41.40
15543;DHT22;7873;52.230;12.856;2023-04-01T00:07:15;25.10;41.40
15543;DHT22;7873;52.230;12.856;2023-04-01T00:09:41;25.10;41.30
15543;DHT22;7873;52.230;12.856;2023-04-01T00:12:08;25.10;41.20
15543;DHT22;7873;52.230;12.856;2023-04-01T00:14:34;25.20;41.20
15543;DHT22;7873;52.230;12.856;2023-04-01T00:17:02;25.20;41.00
15543;DHT22;7873;52.230;12.856;2023-04-01T00:19:29;25.10;41.30
15543;DHT22;7873;52.230;12.856;2023-04-01T00:21:57;25.10;41.30
15543;DHT22;7873;52.230;12.856;2023-04-01T00:24:25;25.20;41.10
15543;DHT22;7873;52.230;12.856;2023-04-01T00:26:51;25.20;41.10
15543;DHT22;7873;52.230;12.856;2023-04-01T00:29:18;25.20;41.10
15543;DHT22;7873;52.230;12.856;2023-04-01T00:31:45;25.30;40.90
15543;DHT22;7873;52.230;12.856;2023-04-01T00:34:12;25.20;40.80
15543;DHT22;7873;52.230;12.856;2023-04-01T00:36:38;25.20;41.00
15543;DHT22;7873;52.230;12.856;2023-04-01T00:39:05;25.20;41.20
15543;DHT22;7873;52.230;12.856;2023-04-01T00:41:33;25.00;41.30
15543;DHT22;7873;52.230;12.856;2023-04-01T00:44:17;25.00;41.40
15543;DHT22;7873;52.230;12.856;2023-04-01T00:46:46;25.10;41.20
15543;DHT22;7873;52.230;12.856;2023-04-01T00:49:13;25.10;41.10
15543;DHT22;7873;52.230;12.856;2023-04-01T00:51:41;25.10;41.10
15543;DHT22;7873;52.230;12.856;2023-04-01T00:54:09;25.20;41.00
15543;DHT22;7873;52.230;12.856;2023-04-01T00:56:39;25.10;41.00
15543;DHT22;7873;52.230;12.856;2023-04-01T00:59:09;25.10;41.00
15543;DHT22;7873;52.230;12.856;2023-04-01T01:01:37;25.10;41.10
15543;DHT22;7873;52.230;12.856;2023-04-01T01:04:05;25.10;41.10
15543;DHT22;7873;52.230;12.856;2023-04-01T01:06:36;25.00;41.20
15543;DHT22;7873;52.230;12.856;2023-04-01T01:09:14;25.00;41.30
15543;DHT22;7873;52.230;12.856;2023-04-01T01:11:52;25.00;41.20
15543;DHT22;7873;52.230;12.856;2023-04-01T01:14:25;24.90;41.30
15543;DHT22;7873;52.230;12.856;2023-04-01T01:17:02;25.00;41.50
15543;DHT22;7873;52.230;12.856;2023-04-01T01:19:47;24.90;41.40
15543;DHT22;7873;52.230;12.856;2023-04-01T01:25:21;24.90;41.40
15543;DHT22;7873;52.230;12.856;2023-04-01T01:28:02;24.80;41.60
15543;DHT22;7873;52.230;12.856;2023-04-01T01:30:44;24.80;41.60
15543;DHT22;7873;52.230;12.856;2023-04-01T01:33:20;24.70;41.70
15543;DHT22;7873;52.230;12.856;2023-04-01T01:36:00;24.70;41.80
15543;DHT22;7873;52.230;12.856;2023-04-01T01:38:31;24.80;41.70
15543;DHT22;7873;52.230;12.856;2023-04-01T01:41:00;24.70;41.80
15543;DHT22;7873;52.230;12.856;2023-04-01T01:43:29;24.70;41.70
15543;DHT22;7873;52.230;12.856;2023-04-01T01:45:59;24.80;41.70
15543;DHT22;7873;52.230;12.856;2023-04-01T01:48:29;24.70;41.70
15543;DHT22;7873;52.230;12.856;2023-04-01T01:50:57;24.70;41.80
15543;DHT22;7873;52.230;12.856;2023-04-01T01:53:27;24.60;41.90
15543;DHT22;7873;52.230;12.856;2023-04-01T01:55:53;24.60;42.10
15543;DHT22;7873;52.230;12.856;2023-04-01T01:58:21;24.60;42.00
15543;DHT22;7873;52.230;12.856;2023-04-01T02:00:51;24.60;41.90
15543;DHT22;7873;52.230;12.856;2023-04-01T02:03:21;24.60;42.10
15543;DHT22;7873;52.230;12.856;2023-04-01T02:05:51;24.50;42.10
15543;DHT22;7873;52.230;12.856;2023-04-01T02:08:21;24.60;42.20
15543;DHT22;7873;52.230;12.856;2023-04-01T02:10:55;24.60;42.10
15543;DHT22;7873;52.230;12.856;2023-04-01T02:13:25;24.60;41.90
15543;DHT22;7873;52.230;12.856;2023-04-01T02:15:56;24.60;41.80
15543;DHT22;7873;52.230;12.856;2023-04-01T02:18:27;24.50;41.90
15543;DHT22;7873;52.230;12.856;2023-04-01T02:20:56;24.50;41.90
15543;DHT22;7873;52.230;12.856;2023-04-01T02:23:24;24.50;42.80
15543;DHT22;7873;52.230;12.856;2023-04-01T02:25:52;24.50;42.10
15543;DHT22;7873;52.230;12.856;2023-04-01T02:28:21;24.40;42.30
15543;DHT22;7873;52.230;12.856;2023-04-01T02:30:49;24.30;42.30
15543;DHT22;7873;52.230;12.856;2023-04-01T02:33:17;24.30;42.30
15543;DHT22;7873;52.230;12.856;2023-04-01T02:35:45;24.40;42.30
15543;DHT22;7873;52.230;12.856;2023-04-01T02:38:12;24.30;42.30
15543;DHT22;7873;52.230;12.856;2023-04-01T02:40:45;24.30;42.20
15543;DHT22;7873;52.230;12.856;2023-04-01T02:43:15;24.30;42.40
15543;DHT22;7873;52.230;12.856;2023-04-01T02:45:42;24.30;42.60
15543;DHT22;7873;52.230;12.856;2023-04-01T02:48:09;24.30;42.60
15543;DHT22;7873;52.230;12.856;2023-04-01T02:50:36;24.30;42.40
15543;DHT22;7873;52.230;12.856;2023-04-01T02:53:02;24.20;42.50
15543;DHT22;7873;52.230;12.856;2023-04-01T02:55:31;24.30;42.50
15543;DHT22;7873;52.230;12.856;2023-04-01T02:57:58;24.20;42.50
15543;DHT22;7873;52.230;12.856;2023-04-01T03:00:26;24.20;42.50
15543;DHT22;7873;52.230;12.856;2023-04-01T03:02:53;24.20;42.50
15543;DHT22;7873;52.230;12.856;2023-04-01T03:05:20;24.30;42.40
15543;DHT22;7873;52.230;12.856;2023-04-01T03:07:47;24.30;42.30
15543;DHT22;7873;52.230;12.856;2023-04-01T03:10:13;24.20;42.40
15543;DHT22;7873;52.230;12.856;2023-04-01T03:12:40;24.30;42.50
15543;DHT22;7873;52.230;12.856;2023-04-01T03:15:08;24.20;42.40
15543;DHT22;7873;52.230;12.856;2023-04-01T03:17:37;24.20;42.50
15543;DHT22;7873;52.230;12.856;2023-04-01T03:20:05;24.20;42.40
15543;DHT22;7873;52.230;12.856;2023-04-01T03:22:33;24.20;43.20
15543;DHT22;7873;52.230;12.856;2023-04-01T03:25:00;24.10;42.60
15543;DHT22;7873;52.230;12.856;2023-04-01T03:27:27;24.10;42.60
15543;DHT22;7873;52.230;12.856;2023-04-01T03:29:54;24.10;42.70
15543;DHT22;7873;52.230;12.856;2023-04-01T03:32:21;24.10;42.60
15543;DHT22;7873;52.230;12.856;2023-04-01T03:34:49;24.20;42.40
15543;DHT22;7873;52.230;12.856;2023-04-01T03:37:15;24.10;42.50
15543;DHT22;7873;52.230;12.856;2023-04-01T03:39:42;24.10;42.60
15543;DHT22;7873;52.230;12.856;2023-04-01T03:42:09;24.10;42.60
15543;DHT22;7873;52.230;12.856;2023-04-01T03:44:35;24.10;42.60
15543;DHT22;7873;52.230;12.856;2023-04-01T03:47:02;24.10;42.60
15543;DHT22;7873;52.230;12.856;2023-04-01T03:49:29;24.10;42.60
15543;DHT22;7873;52.230;12.856;2023-04-01T03:51:58;24.10;42.80
15543;DHT22;7873;52.230;12.856;2023-04-01T03:54:25;23.90;43.10
15543;DHT22;7873;52.230;12.856;2023-04-01T03:56:52;23.90;43.20
15543;DHT22;7873;52.230;12.856;2023-04-01T03:59:18;23.90;43.10
15543;DHT22;7873;52.230;12.856;2023-04-01T04:01:46;23.90;43.00
15543;DHT22;7873;52.230;12.856;2023-04-01T04:04:12;23.90;43.00
15543;DHT22;7873;52.230;12.856;2023-04-01T04:06:39;23.90;43.30
15543;DHT22;7873;52.230;12.856;2023-04-01T04:09:07;23.90;43.20
15543;DHT22;7873;52.230;12.856;2023-04-01T04:11:34;24.20;42.80
15543;DHT22;7873;52.230;12.856;2023-04-01T04:14:01;24.10;42.80
15543;DHT22;7873;52.230;12.856;2023-04-01T04:16:28;24.00;42.90
15543;DHT22;7873;52.230;12.856;2023-04-01T04:18:54;24.00;42.80
15543;DHT22;7873;52.230;12.856;2023-04-01T04:21:21;24.00;43.40
15543;DHT22;7873;52.230;12.856;2023-04-01T04:23:48;24.10;42.30
15543;DHT22;7873;52.230;12.856;2023-04-01T04:26:17;24.10;42.50
15543;DHT22;7873;52.230;12.856;2023-04-01T04:28:43;24.10;42.80
15543;DHT22;7873;52.230;12.856;2023-04-01T04:31:10;24.10;42.60
15543;DHT22;7873;52.230;12.856;2023-04-01T04:33:37;24.10;42.30
15543;DHT22;7873;52.230;12.856;2023-04-01T04:36:04;24.10;42.20
15543;DHT22;7873;52.230;12.856;2023-04-01T04:38:31;24.10;42.00
15543;DHT22;7873;52.230;12.856;2023-04-01T04:40:57;24.20;41.90
15543;DHT22;7873;52.230;12.856;2023-04-01T04:43:25;24.30;41.70
15543;DHT22;7873;52.230;12.856;2023-04-01T04:45:52;24.30;41.60
15543;DHT22;7873;52.230;12.856;2023-04-01T04:48:19;24.30;41.60
15543;DHT22;7873;52.230;12.856;2023-04-01T04:50:46;24.40;41.70
15543;DHT22;7873;52.230;12.856;2023-04-01T04:53:14;24.40;41.60
15543;DHT22;7873;52.230;12.856;2023-04-01T04:55:44;24.40;41.60
15543;DHT22;7873;52.230;12.856;2023-04-01T04:58:11;24.40;41.70
15543;DHT22;7873;52.230;12.856;2023-04-01T05:00:39;24.40;42.00
15543;DHT22;7873;52.230;12.856;2023-04-01T05:03:06;24.40;42.00
15543;DHT22;7873;52.230;12.856;2023-04-01T05:05:33;24.40;41.90
15543;DHT22;7873;52.230;12.856;2023-04-01T05:08:00;24.40;41.90
15543;DHT22;7873;52.230;12.856;2023-04-01T05:10:27;24.40;41.80
15543;DHT22;7873;52.230;12.856;2023-04-01T05:12:54;24.30;42.10
15543;DHT22;7873;52.230;12.856;2023-04-01T05:15:21;24.20;41.30
15543;DHT22;7873;52.230;12.856;2023-04-01T05:17:49;24.20;42.00
15543;DHT22;7873;52.230;12.856;2023-04-01T05:20:16;24.20;42.30
15543;DHT22;7873;52.230;12.856;2023-04-01T05:22:42;24.30;42.20
15543;DHT22;7873;52.230;12.856;2023-04-01T05:25:09;24.30;42.10
15543;DHT22;7873;52.230;12.856;2023-04-01T05:27:36;23.80;40.90
15543;DHT22;7873;52.230;12.856;2023-04-01T05:30:03;23.40;41.80
15543;DHT22;7873;52.230;12.856;2023-04-01T05:32:31;23.40;42.50
15543;DHT22;7873;52.230;12.856;2023-04-01T05:34:59;23.70;43.00
15543;DHT22;7873;52.230;12.856;2023-04-01T05:37:26;24.00;42.60
15543;DHT22;7873;52.230;12.856;2023-04-01T05:39:52;24.10;42.30
15543;DHT22;7873;52.230;12.856;2023-04-01T05:42:19;24.10;42.60
15543;DHT22;7873;52.230;12.856;2023-04-01T05:44:46;24.10;42.50
15543;DHT22;7873;52.230;12.856;2023-04-01T05:47:12;24.20;42.20
15543;DHT22;7873;52.230;12.856;2023-04-01T05:49:39;24.10;42.80
15543;DHT22;7873;52.230;12.856;2023-04-01T05:52:07;24.10;42.80
15543;DHT22;7873;52.230;12.856;2023-04-01T05:54:34;24.10;42.70
15543;DHT22;7873;52.230;12.856;2023-04-01T05:57:01;24.10;42.30
15543;DHT22;7873;52.230;12.856;2023-04-01T05:59:27;24.00;42.30
15543;DHT22;7873;52.230;12.856;2023-04-01T06:01:56;24.00;42.50
15543;DHT22;7873;52.230;12.856;2023-04-01T06:04:23;24.00;42.60
15543;DHT22;7873;52.230;12.856;2023-04-01T06:09:29;24.10;42.50
15543;DHT22;7873;52.230;12.856;2023-04-01T06:14:54;23.90;42.50
15543;DHT22;7873;52.230;12.856;2023-04-01T06:17:32;23.80;42.60
15543;DHT22;7873;52.230;12.856;2023-04-01T06:20:08;23.70;42.60
15543;DHT22;7873;52.230;12.856;2023-04-01T06:22:49;23.70;42.70
15543;DHT22;7873;52.230;12.856;2023-04-01T06:25:36;23.60;42.60
15543;DHT22;7873;52.230;12.856;2023-04-01T06:28:29;23.70;42.60
15543;DHT22;7873;52.230;12.856;2023-04-01T06:31:10;23.70;42.50
15543;DHT22;7873;52.230;12.856;2023-04-01T06:33:52;23.60;42.40
15543;DHT22;7873;52.230;12.856;2023-04-01T06:36:43;23.70;42.40
15543;DHT22;7873;52.230;12.856;2023-04-01T06:39:32;23.70;42.40
15543;DHT22;7873;52.230;12.856;2023-04-01T06:42:25;23.60;42.30
15543;DHT22;7873;52.230;12.856;2023-04-01T06:45:06;23.60;42.40
15543;DHT22;7873;52.230;12.856;2023-04-01T06:47:47;23.60;42.50
15543;DHT22;7873;52.230;12.856;2023-04-01T06:50:24;23.60;42.30
15543;DHT22;7873;52.230;12.856;2023-04-01T06:52:56;23.50;42.30
15543;DHT22;7873;52.230;12.856;2023-04-01T06:55:32;23.50;42.50
15543;DHT22;7873;52.230;12.856;2023-04-01T06:58:06;23.50;42.30
15543;DHT22;7873;52.230;12.856;2023-04-01T07:00:41;23.50;42.20
15543;DHT22;7873;52.230;12.856;2023-04-01T07:03:14;23.50;42.30
15543;DHT22;7873;52.230;12.856;2023-04-01T07:05:46;23.50;42.50
15543;DHT22;7873;52.230;12.856;2023-04-01T07:08:15;23.50;42.50
15543;DHT22;7873;52.230;12.856;2023-04-01T07:10:47;23.40;42.50
15543;DHT22;7873;52.230;12.856;2023-04-01T07:13:22;23.40;42.40
15543;DHT22;7873;52.230;12.856;2023-04-01T07:15:57;23.40;42.40
15543;DHT22;7873;52.230;12.856;2023-04-01T07:18:30;23.40;42.50
15543;DHT22;7873;52.230;12.856;2023-04-01T07:21:01;23.40;42.50
15543;DHT22;7873;52.230;12.856;2023-04-01T07:23:31;23.40;42.40
15543;DHT22;7873;52.230;12.856;2023-04-01T07:26:04;23.40;42.50
15543;DHT22;7873;52.230;12.856;2023-04-01T07:28:38;23.40;42.50
15543;DHT22;7873;52.230;12.856;2023-04-01T07:31:07;23.40;42.40
15543;DHT22;7873;52.230;12.856;2023-04-01T07:33:43;23.30;42.30
15543;DHT22;7873;52.230;12.856;2023-04-01T07:36:16;23.30;42.50
15543;DHT22;7873;52.230;12.856;2023-04-01T07:38:51;23.20;42.60
15543;DHT22;7873;52.230;12.856;2023-04-01T07:41:29;23.20;42.70
15543;DHT22;7873;52.230;12.856;2023-04-01T07:44:07;23.20;42.70
15543;DHT22;7873;52.230;12.856;2023-04-01T07:46:43;23.20;42.70
15543;DHT22;7873;52.230;12.856;2023-04-01T07:49:34;23.20;42.70
15543;DHT22;7873;52.230;12.856;2023-04-01T07:52:12;23.10;42.80
15543;DHT22;7873;52.230;12.856;2023-04-01T07:54:46;23.20;42.80
15543;DHT22;7873;52.230;12.856;2023-04-01T07:57:18;23.20;42.80
15543;DHT22;7873;52.230;12.856;2023-04-01T07:59:50;23.20;42.80
15543;DHT22;7873;52.230;12.856;2023-04-01T08:02:26;23.20;42.70
15543;DHT22;7873;52.230;12.856;2023-04-01T08:05:04;23.20;42.60
15543;DHT22;7873;52.230;12.856;2023-04-01T08:07:41;23.10;42.70
15543;DHT22;7873;52.230;12.856;2023-04-01T08:10:14;23.10;42.80
15543;DHT22;7873;52.230;12.856;2023-04-01T08:12:48;23.10;43.50
15543;DHT22;7873;52.230;12.856;2023-04-01T08:15:31;23.10;42.80
15543;DHT22;7873;52.230;12.856;2023-04-01T08:18:04;23.10;42.80
15543;DHT22;7873;52.230;12.856;2023-04-01T08:20:38;23.10;42.90
15543;DHT22;7873;52.230;12.856;2023-04-01T08:23:12;23.10;42.70
15543;DHT22;7873;52.230;12.856;2023-04-01T08:25:40;23.10;42.70
15543;DHT22;7873;52.230;12.856;2023-04-01T08:28:14;23.10;42.80
15543;DHT22;7873;52.230;12.856;2023-04-01T08:30:48;23.10;42.70
15543;DHT22;7873;52.230;12.856;2023-04-01T08:33:20;23.10;42.70
15543;DHT22;7873;52.230;12.856;2023-04-01T08:35:53;23.10;42.60
15543;DHT22;7873;52.230;12.856;2023-04-01T08:38:24;23.10;42.60
15543;DHT22;7873;52.230;12.856;2023-04-01T08:41:00;23.10;42.60
15543;DHT22;7873;52.230;12.856;2023-04-01T08:46:37;23.20;42.60
15543;DHT22;7873;52.230;12.856;2023-04-01T08:49:17;23.20;42.50
15543;DHT22;7873;52.230;12.856;2023-04-01T08:51:58;23.10;42.60
15543;DHT22;7873;52.230;12.856;2023-04-01T08:57:59;23.20;42.60
15543;DHT22;7873;52.230;12.856;2023-04-01T09:00:38;23.10;42.50
15543;DHT22;7873;52.230;12.856;2023-04-01T09:03:18;23.20;42.40
15543;DHT22;7873;52.230;12.856;2023-04-01T09:06:02;23.20;42.30
15543;DHT22;7873;52.230;12.856;2023-04-01T09:08:52;23.20;42.30
15543;DHT22;7873;52.230;12.856;2023-04-01T09:11:35;23.20;42.30
15543;DHT22;7873;52.230;12.856;2023-04-01T09:14:17;23.20;42.20
15543;DHT22;7873;52.230;12.856;2023-04-01T09:17:02;23.20;42.30
15543;DHT22;7873;52.230;12.856;2023-04-01T09:19:55;23.20;42.20
15543;DHT22;7873;52.230;12.856;2023-04-01T09:22:36;23.30;42.10
15543;DHT22;7873;52.230;12.856;2023-04-01T09:25:24;23.20;42.30
15543;DHT22;7873;52.230;12.856;2023-04-01T09:28:13;23.20;42.30
15543;DHT22;7873;52.230;12.856;2023-04-01T09:30:48;23.30;42.10
15543;DHT22;7873;52.230;12.856;2023-04-01T09:33:46;23.30;42.10
15543;DHT22;7873;52.230;12.856;2023-04-01T09:36:31;23.20;42.30
15543;DHT22;7873;52.230;12.856;2023-04-01T09:39:11;23.20;42.30
15543;DHT22;7873;52.230;12.856;2023-04-01T09:41:52;23.20;42.20
15543;DHT22;7873;52.230;12.856;2023-04-01T09:44:33;23.20;42.30
15543;DHT22;7873;52.230;12.856;2023-04-01T09:47:06;23.20;42.30
15543;DHT22;7873;52.230;12.856;2023-04-01T09:52:43;23.20;42.30
15543;DHT22;7873;52.230;12.856;2023-04-01T09:55:21;23.20;42.30
15543;DHT22;7873;52.230;12.856;2023-04-01T09:58:22;23.20;42.30
15543;DHT22;7873;52.230;12.856;2023-04-01T10:01:11;23.20;42.30
15543;DHT22;7873;52.230;12.856;2023-04-01T10:04:15;23.20;42.10
15543;DHT22;7873;52.230;12.856;2023-04-01T10:10:22;23.20;42.20
15543;DHT22;7873;52.230;12.856;2023-04-01T10:13:06;23.20;42.20
15543;DHT22;7873;52.230;12.856;2023-04-01T10:19:21;23.20;42.10
15543;DHT22;7873;52.230;12.856;2023-04-01T10:22:12;23.20;42.10
15543;DHT22;7873;52.230;12.856;2023-04-01T10:24:55;23.20;42.10
15543;DHT22;7873;52.230;12.856;2023-04-01T10:28:00;23.20;42.10
15543;DHT22;7873;52.230;12.856;2023-04-01T10:34:00;23.20;42.20
15543;DHT22;7873;52.230;12.856;2023-04-01T10:36:50;23.20;42.20
15543;DHT22;7873;52.230;12.856;2023-04-01T10:39:22;23.20;42.20
15543;DHT22;7873;52.230;12.856;2023-04-01T10:42:22;23.20;42.20
15543;DHT22;7873;52.230;12.856;2023-04-01T10:48:24;23.20;42.00
15543;DHT22;7873;52.230;12.856;2023-04-01T10:51:14;23.10;42.10
15543;DHT22;7873;52.230;12.856;2023-04-01T10:53:49;23.20;42.10
15543;DHT22;7873;52.230;12.856;2023-04-01T10:56:42;23.20;42.10
15543;DHT22;7873;52.230;12.856;2023-04-01T10:59:33;23.20;42.10
15543;DHT22;7873;52.230;12.856;2023-04-01T11:17:30;22.80;43.10
15543;DHT22;7873;52.230;12.856;2023-04-01T11:20:19;22.80;43.20
15543;DHT22;7873;52.230;12.856;2023-04-01T11:23:10;22.80;43.10
15543;DHT22;7873;52.230;12.856;2023-04-01T11:25:55;22.80;43.10
15543;DHT22;7873;52.230;12.856;2023-04-01T11:28:35;22.90;43.90
15543;DHT22;7873;52.230;12.856;2023-04-01T11:31:19;22.90;43.10
15543;DHT22;7873;52.230;12.856;2023-04-01T11:33:56;23.00;43.00
15543;DHT22;7873;52.230;12.856;2023-04-01T11:36:32;23.00;42.80
15543;DHT22;7873;52.230;12.856;2023-04-01T11:39:11;23.10;42.80
15543;DHT22;7873;52.230;12.856;2023-04-01T11:41:49;23.10;43.60
15543;DHT22;7873;52.230;12.856;2023-04-01T11:44:24;23.10;43.00
15543;DHT22;7873;52.230;12.856;2023-04-01T11:47:03;23.00;42.90
15543;DHT22;7873;52.230;12.856;2023-04-01T11:49:42;23.00;43.10
15543;DHT22;7873;52.230;12.856;2023-04-01T11:52:27;22.90;43.30
15543;DHT22;7873;52.230;12.856;2023-04-01T11:55:12;23.00;43.30
15543;DHT22;7873;52.230;12.856;2023-04-01T11:57:51;23.00;43.30
15543;DHT22;7873;52.230;12.856;2023-04-01T12:03:40;23.00;43.30
15543;DHT22;7873;52.230;12.856;2023-04-01T12:06:16;22.90;43.20
15543;DHT22;7873;52.230;12.856;2023-04-01T12:08:54;22.90;43.20
15543;DHT22;7873;52.230;12.856;2023-04-01T12:11:28;22.90;43.30
15543;DHT22;7873;52.230;12.856;2023-04-01T12:14:03;22.80;43.30
15543;DHT22;7873;52.230;12.856;2023-04-01T12:16:41;22.80;43.30
15543;DHT22;7873;52.230;12.856;2023-04-01T12:19:17;22.90;43.20
15543;DHT22;7873;52.230;12.856;2023-04-01T12:21:52;22.90;43.20
15543;DHT22;7873;52.230;12.856;2023-04-01T12:24:41;22.90;43.20
15543;DHT22;7873;52.230;12.856;2023-04-01T12:27:24;22.80;43.20
15543;DHT22;7873;52.230;12.856;2023-04-01T12:30:04;22.90;43.20
15543;DHT22;7873;52.230;12.856;2023-04-01T12:32:59;22.90;43.00
15543;DHT22;7873;52.230;12.856;2023-04-01T12:35:40;22.90;43.00
15543;DHT22;7873;52.230;12.856;2023-04-01T12:38:21;22.90;42.90
15543;DHT22;7873;52.230;12.856;2023-04-01T12:41:08;22.90;42.80
15543;DHT22;7873;52.230;12.856;2023-04-01T12:46:50;23.00;42.60
15543;DHT22;7873;52.230;12.856;2023-04-01T12:49:40;22.90;42.50
15543;DHT22;7873;52.230;12.856;2023-04-01T12:52:28;22.90;42.50
15543;DHT22;7873;52.230;12.856;2023-04-01T12:58:14;23.00;42.30
15543;DHT22;7873;52.230;12.856;2023-04-01T13:00:58;23.00;42.20
15543;DHT22;7873;52.230;12.856;2023-04-01T13:03:43;23.00;42.10
15543;DHT22;7873;52.230;12.856;2023-04-01T13:09:30;23.10;41.80
15543;DHT22;7873;52.230;12.856;2023-04-01T13:12:10;23.10;41.70
15543;DHT22;7873;52.230;12.856;2023-04-01T13:14:54;23.10;41.70
15543;DHT22;7873;52.230;12.856;2023-04-01T13:17:36;23.10;41.70
15543;DHT22;7873;52.230;12.856;2023-04-01T13:20:13;23.10;41.70
15543;DHT22;7873;52.230;12.856;2023-04-01T13:22:47;23.10;41.70
15543;DHT22;7873;52.230;12.856;2023-04-01T13:25:24;23.10;41.60
15543;DHT22;7873;52.230;12.856;2023-04-01T13:27:56;23.10;41.50
15543;DHT22;7873;52.230;12.856;2023-04-01T13:30:30;23.20;41.60
15543;DHT22;7873;52.230;12.856;2023-04-01T13:33:01;23.10;41.60
15543;DHT22;7873;52.230;12.856;2023-04-01T13:35:41;23.10;41.60
15543;DHT22;7873;52.230;12.856;2023-04-01T13:38:16;23.10;41.50
15543;DHT22;7873;52.230;12.856;2023-04-01T13:41:00;23.10;41.50
15543;DHT22;7873;52.230;12.856;2023-04-01T13:43:36;23.10;41.60
15543;DHT22;7873;52.230;12.856;2023-04-01T13:46:08;23.10;41.60
15543;DHT22;7873;52.230;12.856;2023-04-01T13:48:46;23.00;41.50
15543;DHT22;7873;52.230;12.856;2023-04-01T13:54:25;23.10;41.50
15543;DHT22;7873;52.230;12.856;2023-04-01T13:57:07;23.00;41.50
15543;DHT22;7873;52.230;12.856;2023-04-01T13:59:50;23.10;41.50
15543;DHT22;7873;52.230;12.856;2023-04-01T14:02:44;23.00;41.40
15543;DHT22;7873;52.230;12.856;2023-04-01T14:05:32;23.00;41.40
15543;DHT22;7873;52.230;12.856;2023-04-01T14:08:14;23.10;41.40
15543;DHT22;7873;52.230;12.856;2023-04-01T14:10:54;23.10;41.40
15543;DHT22;7873;52.230;12.856;2023-04-01T14:13:37;23.00;41.40
15543;DHT22;7873;52.230;12.856;2023-04-01T14:16:13;23.00;41.40
15543;DHT22;7873;52.230;12.856;2023-04-01T14:19:08;23.00;41.40
15543;DHT22;7873;52.230;12.856;2023-04-01T14:21:51;23.00;41.30
15543;DHT22;7873;52.230;12.856;2023-04-01T14:24:32;23.10;41.30
15543;DHT22;7873;52.230;12.856;2023-04-01T14:27:17;23.00;41.20
15543;DHT22;7873;52.230;12.856;2023-04-01T14:29:59;23.00;41.40
15543;DHT22;7873;52.230;12.856;2023-04-01T14:32:40;23.00;41.30
15543;DHT22;7873;52.230;12.856;2023-04-01T14:35:26;23.00;41.30
15543;DHT22;7873;52.230;12.856;2023-04-01T14:38:12;22.90;41.40
15543;DHT22;7873;52.230;12.856;2023-04-01T14:40:58;22.90;41.40
15543;DHT22;7873;52.230;12.856;2023-04-01T14:46:56;22.90;41.40
15543;DHT22;7873;52.230;12.856;2023-04-01T14:50:03;22.90;41.40
15543;DHT22;7873;52.230;12.856;2023-04-01T14:52:35;22.90;41.50
15543;DHT22;7873;52.230;12.856;2023-04-01T14:55:15;22.90;41.50
15543;DHT22;7873;52.230;12.856;2023-04-01T14:57:57;22.90;41.50
15543;DHT22;7873;52.230;12.856;2023-04-01T15:00:26;22.80;41.50
15543;DHT22;7873;52.230;12.856;2023-04-01T15:03:06;22.80;41.50
15543;DHT22;7873;52.230;12.856;2023-04-01T15:05:43;22.80;41.40
15543;DHT22;7873;52.230;12.856;2023-04-01T15:08:16;22.80;41.40
15543;DHT22;7873;52.230;12.856;2023-04-01T15:10:49;22.80;41.50
15543;DHT22;7873;52.230;12.856;2023-04-01T15:13:44;22.80;41.50
15543;DHT22;7873;52.230;12.856;2023-04-01T15:16:23;22.80;41.40
15543;DHT22;7873;52.230;12.856;2023-04-01T15:18:59;22.80;41.40
15543;DHT22;7873;52.230;12.856;2023-04-01T15:21:44;22.80;41.30
15543;DHT22;7873;52.230;12.856;2023-04-01T15:24:24;22.80;41.30
15543;DHT22;7873;52.230;12.856;2023-04-01T15:29:44;22.80;41.40
15543;DHT22;7873;52.230;12.856;2023-04-01T15:32:27;22.80;41.40
15543;DHT22;7873;52.230;12.856;2023-04-01T15:35:12;22.80;42.10
15543;DHT22;7873;52.230;12.856;2023-04-01T15:37:48;22.80;41.40
15543;DHT22;7873;52.230;12.856;2023-04-01T15:40:22;22.80;41.40
15543;DHT22;7873;52.230;12.856;2023-04-01T15:42:58;22.70;41.40
15543;DHT22;7873;52.230;12.856;2023-04-01T15:45:36;22.80;41.60
15543;DHT22;7873;52.230;12.856;2023-04-01T15:48:25;22.60;41.90
15543;DHT22;7873;52.230;12.856;2023-04-01T15:51:06;22.60;41.50
15543;DHT22;7873;52.230;12.856;2023-04-01T15:53:46;22.50;41.20
15543;DHT22;7873;52.230;12.856;2023-04-01T15:56:26;22.50;41.70
15543;DHT22;7873;52.230;12.856;2023-04-01T15:59:09;22.60;41.60
15543;DHT22;7873;52.230;12.856;2023-04-01T16:01:47;22.40;42.10
15543;DHT22;7873;52.230;12.856;2023-04-01T16:04:34;22.40;42.10
15543;DHT22;7873;52.230;12.856;2023-04-01T16:07:17;22.60;41.60
15543;DHT22;7873;52.230;12.856;2023-04-01T16:09:56;22.60;41.30
15543;DHT22;7873;52.230;12.856;2023-04-01T16:12:34;22.60;41.30
15543;DHT22;7873;52.230;12.856;2023-04-01T16:15:11;22.60;41.40
15543;DHT22;7873;52.230;12.856;2023-04-01T16:17:54;22.70;41.40
15543;DHT22;7873;52.230;12.856;2023-04-01T16:20:35;22.60;41.70
15543;DHT22;7873;52.230;12.856;2023-04-01T16:23:13;22.60;41.40
15543;DHT22;7873;52.230;12.856;2023-04-01T16:25:49;22.50;41.90
15543;DHT22;7873;52.230;12.856;2023-04-01T16:28:22;22.40;41.10
15543;DHT22;7873;52.230;12.856;2023-04-01T16:30:55;22.50;41.20
15543;DHT22;7873;52.230;12.856;2023-04-01T16:33:27;22.40;41.40
15543;DHT22;7873;52.230;12.856;2023-04-01T16:36:05;22.40;41.40
15543;DHT22;7873;52.230;12.856;2023-04-01T16:38:39;22.40;41.30
15543;DHT22;7873;52.230;12.856;2023-04-01T16:41:11;22.10;41.00
15543;DHT22;7873;52.230;12.856;2023-04-01T16:43:43;22.00;41.50
15543;DHT22;7873;52.230;12.856;2023-04-01T16:49:17;22.30;41.20
15543;DHT22;7873;52.230;12.856;2023-04-01T16:51:57;22.40;41.10
15543;DHT22;7873;52.230;12.856;2023-04-01T16:54:42;22.50;41.30
15543;DHT22;7873;52.230;12.856;2023-04-01T16:57:17;22.50;41.00
15543;DHT22;7873;52.230;12.856;2023-04-01T16:59:47;22.50;40.90
15543;DHT22;7873;52.230;12.856;2023-04-01T17:02:20;22.50;41.20
15543;DHT22;7873;52.230;12.856;2023-04-01T17:04:57;22.50;41.40
15543;DHT22;7873;52.230;12.856;2023-04-01T17:07:28;22.60;41.10
15543;DHT22;7873;52.230;12.856;2023-04-01T17:10:06;22.70;41.10
15543;DHT22;7873;52.230;12.856;2023-04-01T17:12:49;22.60;41.10
15543;DHT22;7873;52.230;12.856;2023-04-01T17:15:26;22.70;41.00
15543;DHT22;7873;52.230;12.856;2023-04-01T17:18:00;22.70;40.90
15543;DHT22;7873;52.230;12.856;2023-04-01T17:20:35;22.80;40.80
15543;DHT22;7873;52.230;12.856;2023-04-01T17:23:11;22.80;40.80
15543;DHT22;7873;52.230;12.856;2023-04-01T17:25:55;22.80;41.10
15543;DHT22;7873;52.230;12.856;2023-04-01T17:28:34;22.70;41.20
15543;DHT22;7873;52.230;12.856;2023-04-01T17:31:12;22.70;40.90
15543;DHT22;7873;52.230;12.856;2023-04-01T17:36:52;22.80;40.80